createdAt,value
2018-02-06T00:02:00.018Z,7.20
2018-02-06T00:04:28.367Z,7.55
2018-02-06T00:06:57.277Z,7.22
2018-02-06T00:09:25.759Z,6.90
2018-02-06T00:11:54.848Z,7.22
2018-02-06T00:14:23.653Z,6.50
2018-02-06T00:16:51.979Z,7.95
2018-02-06T00:19:20.273Z,8.63
2018-02-06T00:21:48.627Z,7.57
2018-02-06T00:24:16.956Z,7.15
2018-02-06T00:26:46.054Z,7.10
2018-02-06T00:29:15.292Z,8.50
2018-02-06T00:31:43.613Z,8.15
2018-02-06T00:34:12.250Z,9.68
2018-02-06T00:36:40.848Z,7.15
2018-02-06T00:39:10.144Z,9.35
2018-02-06T00:41:38.435Z,7.07
2018-02-06T00:44:06.789Z,7.72
2018-02-06T00:46:35.094Z,7.40
2018-02-06T00:49:03.405Z,8.63
2018-02-06T00:51:31.826Z,7.87
2018-02-06T00:54:00.911Z,7.18
2018-02-06T00:56:29.318Z,7.07
2018-02-06T00:58:57.694Z,7.25
2018-02-06T01:01:26.037Z,7.15
2018-02-06T01:03:54.554Z,8.18
2018-02-06T01:06:22.892Z,9.50
2018-02-06T01:08:51.997Z,8.07
2018-02-06T01:11:21.095Z,7.97
2018-02-06T01:13:49.649Z,7.75
2018-02-06T01:16:18.002Z,7.35
2018-02-06T01:18:46.358Z,8.48
2018-02-06T01:21:14.709Z,8.18
2018-02-06T01:23:43.833Z,8.00
2018-02-06T01:26:12.168Z,8.20
2018-02-06T01:28:41.533Z,7.30
2018-02-06T01:31:09.861Z,7.85
2018-02-06T01:33:38.171Z,9.10
2018-02-06T01:36:06.614Z,8.70
2018-02-06T01:38:35.688Z,7.75
2018-02-06T01:41:03.987Z,7.40
2018-02-06T01:43:32.349Z,7.70
2018-02-06T01:46:00.684Z,7.18
2018-02-06T01:48:29.004Z,7.28
2018-02-06T01:50:57.428Z,7.15
2018-02-06T01:53:25.779Z,7.78
2018-02-06T01:55:54.094Z,6.70
2018-02-06T01:58:22.764Z,7.30
2018-02-06T02:00:51.068Z,8.10
2018-02-06T02:03:19.449Z,7.60
2018-02-06T02:05:47.769Z,6.68
2018-02-06T02:08:16.076Z,8.25
2018-02-06T02:10:45.168Z,6.65
2018-02-06T02:13:13.544Z,7.75
2018-02-06T02:15:41.925Z,7.55
2018-02-06T02:18:10.423Z,7.68
2018-02-06T02:20:39.043Z,7.20
2018-02-06T02:23:07.408Z,7.12
2018-02-06T02:25:35.764Z,6.82
2018-02-06T02:28:04.085Z,7.18
2018-02-06T02:30:32.484Z,7.75
2018-02-06T02:33:00.804Z,7.90
2018-02-06T02:35:29.147Z,7.78
2018-02-06T02:37:58.225Z,7.28
2018-02-06T02:40:26.761Z,7.95
2018-02-06T04:39:13.295Z,9.02
2018-02-06T04:41:41.617Z,8.60
2018-02-06T04:44:10.680Z,7.87
2018-02-06T04:46:38.977Z,8.43
2018-02-06T04:49:07.339Z,9.18
2018-02-06T04:51:35.674Z,8.25
2018-02-06T04:54:04.004Z,9.32
2018-02-06T04:56:33.416Z,9.00
2018-02-06T04:59:01.708Z,9.45
2018-02-06T05:01:30.032Z,9.50
2018-02-06T05:03:58.357Z,9.90
2018-02-06T05:06:26.664Z,8.80
2018-02-06T05:08:54.983Z,9.25
2018-02-06T05:11:23.318Z,10.20
2018-02-06T05:13:52.632Z,9.00
2018-02-06T05:16:20.943Z,8.73
2018-02-06T05:18:49.702Z,8.50
2018-02-06T05:21:18.068Z,8.27
2018-02-06T05:23:46.411Z,8.45
2018-02-06T05:26:15.536Z,8.55
2018-02-06T05:28:43.856Z,7.78
2018-02-06T05:31:12.158Z,7.62
2018-02-06T05:33:40.517Z,8.60
2018-02-06T05:36:08.842Z,8.40
2018-02-06T05:38:37.198Z,9.20
2018-02-06T05:41:05.896Z,8.07
2018-02-06T05:43:34.222Z,8.80
2018-02-06T05:46:02.567Z,9.07
2018-02-06T05:48:31.663Z,9.10
2018-02-06T05:51:00.744Z,9.65
2018-02-06T05:53:29.831Z,9.13
2018-02-06T05:55:58.171Z,9.57
2018-02-06T05:58:26.467Z,9.13
2018-02-06T06:00:54.909Z,8.05
2018-02-06T06:03:23.420Z,9.95
2018-02-06T06:05:51.923Z,8.93
2018-02-06T06:08:20.354Z,10.23
2018-02-06T06:10:48.743Z,9.73
2018-02-06T06:13:17.136Z,9.13
2018-02-06T06:15:45.483Z,9.60
2018-02-06T06:18:13.832Z,8.52
2018-02-06T06:20:42.224Z,10.55
2018-02-06T06:23:11.372Z,10.40
2018-02-06T06:25:40.018Z,11.32
2018-02-06T06:28:08.462Z,11.48
2018-02-06T06:30:36.779Z,11.65
2018-02-06T06:33:05.124Z,11.10
2018-02-06T06:35:33.515Z,10.25
2018-02-06T06:38:02.665Z,11.70
2018-02-06T06:40:31.093Z,12.10
2018-02-06T06:42:59.468Z,11.75
2018-02-06T06:45:27.836Z,11.75
2018-02-06T06:47:56.725Z,10.75
2018-02-06T06:50:25.208Z,10.95
2018-02-06T06:52:53.574Z,10.40
2018-02-06T06:55:21.909Z,9.20
2018-02-06T06:57:50.247Z,9.52
2018-02-06T07:00:18.549Z,10.05
2018-02-06T07:02:47.696Z,10.57
2018-02-06T07:05:16.010Z,10.68
2018-02-06T07:07:44.395Z,10.20
2018-02-06T07:10:13.032Z,11.43
2018-02-06T07:12:41.364Z,10.70
2018-02-06T07:15:09.683Z,11.27
2018-02-06T07:17:38.037Z,10.88
2018-02-06T07:20:06.444Z,10.00
2018-02-06T07:22:35.576Z,10.52
2018-02-06T07:25:03.928Z,10.48
2018-02-06T07:27:32.262Z,10.52
2018-02-06T07:30:01.356Z,11.10
2018-02-06T07:32:29.999Z,9.60
2018-02-06T07:34:58.339Z,10.65
2018-02-06T07:37:26.707Z,9.75
2018-02-06T07:39:55.060Z,10.20
2018-02-06T07:42:23.375Z,9.05
2018-02-06T07:44:51.720Z,9.30
2018-02-06T07:47:20.046Z,9.35
2018-02-06T07:49:48.360Z,10.25
2018-02-06T07:52:16.683Z,9.77
2018-02-06T07:54:45.515Z,9.95
2018-02-06T07:57:13.809Z,9.70
2018-02-06T07:59:42.103Z,9.43
2018-02-06T08:02:11.450Z,10.05
2018-02-06T08:04:39.808Z,9.55
2018-02-06T08:07:08.211Z,8.80
2018-02-06T08:09:36.605Z,8.63
2018-02-06T08:12:04.950Z,8.90
2018-02-06T08:14:33.267Z,8.55
2018-02-06T08:17:02.513Z,10.30
2018-02-06T08:19:30.832Z,8.53
2018-02-06T08:21:59.170Z,10.30
2018-02-06T08:24:28.281Z,10.80
2018-02-06T08:26:56.637Z,10.27
2018-02-06T08:29:24.953Z,10.67
2018-02-06T08:31:53.283Z,9.83
2018-02-06T08:34:21.636Z,9.27
2018-02-06T08:36:49.952Z,11.40
2018-02-06T08:39:19.207Z,10.67
2018-02-06T08:41:47.556Z,10.97
2018-02-06T08:44:15.896Z,10.33
2018-02-06T08:46:45.067Z,12.00
2018-02-06T08:49:13.387Z,11.27
2018-02-06T08:51:42.534Z,11.37
2018-02-06T08:54:11.655Z,10.47
2018-02-06T08:56:39.973Z,9.17
2018-02-06T08:59:08.315Z,9.47
2018-02-06T09:01:36.853Z,9.50
2018-02-06T09:04:05.217Z,9.50
2018-02-06T09:06:33.565Z,8.83
2018-02-06T09:09:02.080Z,9.23
2018-02-06T09:11:30.729Z,8.53
2018-02-06T09:13:59.058Z,8.10
2018-02-06T09:16:27.733Z,7.77
2018-02-06T09:18:56.014Z,8.50
2018-02-06T09:21:24.392Z,9.23
2018-02-06T09:23:53.556Z,9.13
2018-02-06T09:26:21.870Z,9.17
2018-02-06T09:28:50.219Z,7.60
2018-02-06T09:31:19.318Z,8.30
2018-02-06T09:33:48.420Z,8.40
2018-02-06T09:36:16.757Z,8.00
2018-02-06T09:38:45.447Z,8.10
2018-02-06T09:41:13.744Z,7.80
2018-02-06T09:43:42.054Z,8.80
2018-02-06T09:46:10.737Z,8.70
2018-02-06T09:48:39.041Z,8.60
2018-02-06T09:51:07.511Z,8.60
2018-02-06T09:53:35.873Z,8.27
2018-02-06T09:56:04.278Z,8.03
2018-02-06T09:58:32.630Z,8.03
2018-02-06T10:01:00.980Z,7.33
2018-02-06T10:03:29.415Z,7.83
2018-02-06T10:05:57.736Z,7.70
2018-02-06T10:08:26.631Z,7.33
2018-02-06T10:10:55.799Z,7.57
2018-02-06T10:13:24.133Z,7.13
2018-02-06T10:15:52.521Z,7.80
2018-02-06T10:18:20.851Z,7.00
2018-02-06T10:20:49.184Z,6.83
2018-02-06T10:23:17.496Z,6.93
2018-02-06T10:25:45.817Z,7.13
2018-02-06T10:28:14.976Z,6.67
2018-02-06T10:30:43.569Z,5.80
2018-02-06T10:33:11.900Z,6.70
2018-02-06T10:35:40.211Z,5.93
2018-02-06T10:38:08.552Z,6.90
2018-02-06T10:40:36.870Z,7.77
2018-02-06T10:43:05.204Z,6.97
2018-02-06T10:45:33.540Z,6.87
2018-02-06T10:48:01.879Z,6.23
2018-02-06T10:50:30.208Z,6.83
2018-02-06T10:52:58.887Z,8.20
2018-02-06T10:55:27.219Z,7.20
2018-02-06T10:57:55.544Z,7.63
2018-02-06T11:00:23.896Z,7.23
2018-02-06T11:02:52.222Z,6.60
2018-02-06T11:05:20.536Z,6.03
2018-02-06T11:07:48.880Z,6.07
2018-02-06T11:10:17.996Z,6.57
2018-02-06T11:12:46.351Z,6.50
2018-02-06T11:15:15.046Z,5.83
2018-02-06T11:17:44.132Z,6.30
2018-02-06T11:20:13.227Z,6.03
2018-02-06T11:22:41.570Z,6.00
2018-02-06T11:25:09.894Z,6.20
2018-02-06T11:27:38.976Z,5.70
2018-02-06T11:30:07.316Z,5.77
2018-02-06T11:32:35.665Z,5.93
2018-02-06T11:35:03.971Z,6.50
2018-02-06T11:37:32.457Z,6.60
2018-02-06T11:40:01.484Z,7.00
2018-02-06T11:42:29.791Z,7.57
2018-02-06T11:44:58.466Z,8.60
2018-02-06T11:47:27.551Z,6.90
2018-02-06T11:49:55.854Z,7.90
2018-02-06T11:52:24.220Z,7.80
2018-02-06T11:54:53.315Z,7.33
2018-02-06T11:57:22.408Z,8.27
2018-02-06T11:59:51.985Z,7.60
2018-02-06T12:02:20.284Z,7.93
2018-02-06T12:04:48.567Z,7.77
2018-02-06T12:07:16.946Z,7.47
2018-02-06T12:09:46.008Z,8.37
2018-02-06T12:12:14.304Z,8.33
2018-02-06T12:14:42.660Z,8.63
2018-02-06T12:17:10.989Z,9.37
2018-02-06T12:19:40.044Z,7.77
2018-02-06T12:22:08.940Z,7.37
2018-02-06T12:24:37.255Z,9.33
2018-02-06T12:27:05.624Z,8.20
2018-02-06T12:29:33.929Z,7.80
2018-02-06T12:32:02.240Z,8.40
2018-02-06T12:34:30.552Z,8.77
2018-02-06T12:36:59.636Z,8.00
2018-02-06T12:39:28.209Z,8.57
2018-02-06T12:41:56.517Z,9.80
2018-02-06T12:44:26.492Z,9.47
2018-02-06T12:46:54.848Z,9.03
2018-02-06T12:49:23.166Z,8.50
2018-02-06T12:51:51.839Z,9.10
2018-02-06T12:54:20.985Z,9.63
2018-02-06T12:56:49.383Z,8.63
2018-02-06T12:59:17.707Z,7.60
2018-02-06T13:01:46.016Z,8.00
2018-02-06T13:04:15.095Z,8.60
2018-02-06T13:06:44.737Z,8.53
2018-02-06T13:09:13.063Z,8.33
2018-02-06T13:11:41.396Z,8.43
2018-02-06T13:14:09.721Z,8.90
2018-02-06T13:16:38.016Z,9.00
2018-02-06T13:19:07.106Z,10.73
2018-02-06T13:21:35.442Z,8.93
2018-02-06T13:24:03.734Z,9.77
2018-02-06T13:26:32.041Z,8.43
2018-02-06T13:29:00.915Z,10.60
2018-02-06T13:31:29.204Z,9.40
2018-02-06T13:33:57.541Z,10.30
2018-02-06T13:36:25.865Z,9.23
2018-02-06T13:38:54.245Z,9.03
2018-02-06T13:41:22.565Z,9.77
2018-02-06T13:43:50.949Z,9.23
2018-02-06T13:46:19.530Z,9.13
2018-02-06T13:48:47.857Z,10.53
2018-02-06T13:51:16.492Z,9.83
2018-02-06T13:53:44.799Z,9.27
2018-02-06T13:56:13.094Z,9.70
2018-02-06T13:58:41.437Z,9.23
2018-02-06T14:01:09.776Z,9.50
2018-02-06T14:03:38.878Z,9.00
2018-02-06T14:06:08.008Z,9.50
2018-02-06T14:08:36.330Z,9.57
2018-02-06T14:11:05.420Z,9.27
2018-02-06T14:13:33.979Z,9.37
2018-02-06T14:16:02.296Z,9.93
2018-02-06T14:18:30.589Z,9.10
2018-02-06T14:20:59.028Z,9.00
2018-02-06T14:23:28.147Z,8.40
2018-02-06T14:25:56.530Z,8.77
2018-02-06T14:28:25.677Z,9.27
2018-02-06T14:30:53.981Z,8.70
2018-02-06T14:33:22.369Z,8.30
2018-02-06T14:35:51.061Z,8.50
2018-02-06T14:38:19.404Z,8.67
2018-02-06T14:40:47.727Z,7.53
2018-02-06T14:43:16.888Z,7.90
2018-02-06T14:45:45.219Z,7.87
2018-02-06T14:48:13.823Z,8.10
2018-02-06T14:50:42.218Z,7.90
2018-02-06T14:53:10.764Z,8.20
2018-02-06T14:55:39.873Z,8.83
2018-02-06T14:58:08.504Z,8.23
2018-02-06T15:00:36.828Z,7.93
2018-02-06T15:03:05.125Z,6.85
2018-02-06T15:05:33.546Z,7.05
2018-02-06T15:08:01.864Z,7.57
2018-02-06T15:10:30.180Z,7.95
2018-02-06T15:12:58.510Z,7.20
2018-02-06T15:15:26.855Z,7.12
2018-02-06T15:17:55.169Z,6.85
2018-02-06T15:20:24.648Z,6.68
2018-02-06T15:22:52.992Z,6.70
2018-02-06T15:25:21.304Z,5.90
2018-02-06T15:27:49.742Z,6.22
2018-02-06T15:30:18.073Z,6.18
2018-02-06T15:32:46.406Z,6.22
2018-02-06T15:35:14.732Z,6.22
2018-02-06T15:37:43.165Z,6.12
2018-02-06T15:40:11.476Z,5.85
2018-02-06T15:42:40.347Z,5.55
2018-02-06T15:45:08.691Z,5.60
2018-02-06T15:47:37.065Z,6.62
2018-02-06T15:50:06.217Z,5.40
2018-02-06T15:52:34.729Z,6.18
2018-02-06T15:55:03.054Z,6.03
2018-02-06T15:57:31.365Z,5.80
2018-02-06T15:59:59.684Z,5.43
2018-02-06T16:02:28.005Z,5.72
2018-02-06T16:04:56.435Z,6.43
2018-02-06T16:07:24.987Z,6.10
2018-02-06T16:09:54.249Z,6.00
2018-02-06T16:12:22.864Z,6.28
2018-02-06T16:14:51.220Z,6.43
2018-02-06T16:17:19.556Z,5.57
2018-02-06T16:19:48.690Z,5.62
2018-02-06T16:22:17.024Z,6.70
2018-02-06T16:24:45.339Z,6.78
2018-02-06T16:27:14.206Z,7.35
2018-02-06T16:29:42.521Z,6.68
2018-02-06T16:32:10.830Z,7.03
2018-02-06T16:34:39.264Z,10.18
2018-02-06T16:37:07.568Z,6.62
2018-02-06T16:39:35.856Z,6.95
2018-02-06T16:42:04.221Z,7.90
2018-02-06T16:44:32.577Z,7.25
2018-02-06T16:47:00.895Z,7.45
2018-02-06T16:49:29.551Z,7.60
2018-02-06T16:51:57.853Z,7.18
2018-02-06T16:54:26.164Z,7.05
2018-02-06T16:56:55.277Z,6.68
2018-02-06T16:59:24.361Z,6.93
2018-02-06T17:01:53.433Z,6.90
2018-02-06T17:04:21.772Z,7.05
2018-02-06T17:06:50.123Z,8.35
2018-02-06T17:09:18.428Z,6.68
2018-02-06T17:11:47.071Z,7.68
2018-02-06T17:14:15.425Z,7.75
2018-02-06T17:16:43.741Z,9.15
2018-02-06T17:19:12.173Z,8.07
2018-02-06T17:21:40.624Z,8.05
2018-02-06T17:24:08.948Z,9.77
2018-02-06T17:26:37.281Z,9.23
2018-02-06T17:29:05.604Z,9.32
2018-02-06T17:31:33.937Z,8.77
2018-02-06T17:34:02.782Z,9.40
2018-02-06T17:36:31.109Z,9.73
2018-02-06T17:38:59.426Z,10.40
2018-02-06T17:41:27.770Z,10.02
2018-02-06T17:43:56.313Z,9.25
2018-02-06T17:46:25.419Z,8.45
2018-02-06T17:48:53.740Z,8.70
2018-02-06T17:51:22.043Z,8.95
2018-02-06T17:53:50.377Z,9.35
2018-02-06T17:56:18.907Z,9.18
2018-02-06T17:58:47.242Z,9.60
2018-02-06T18:01:15.540Z,10.00
2018-02-06T18:03:43.936Z,9.35
2018-02-06T18:06:12.258Z,8.25
2018-02-06T18:08:40.571Z,8.30
2018-02-06T18:11:08.914Z,8.07
2018-02-06T18:13:38.125Z,8.05
2018-02-06T18:16:06.441Z,9.00
2018-02-06T18:18:35.058Z,8.40
2018-02-06T18:21:03.373Z,8.10
2018-02-06T18:23:31.719Z,7.37
2018-02-06T18:26:00.132Z,8.15
2018-02-06T18:28:28.457Z,7.15
2018-02-06T18:30:56.771Z,17.27
2018-02-06T18:33:25.152Z,8.25
2018-02-06T18:35:53.462Z,7.37
2018-02-06T18:38:21.799Z,6.97
2018-02-06T18:40:50.432Z,8.25
2018-02-06T18:43:18.768Z,7.62
2018-02-06T18:45:47.102Z,8.18
2018-02-06T18:48:15.454Z,7.55
2018-02-06T18:50:43.743Z,8.30
2018-02-06T18:53:12.105Z,8.18
2018-02-06T18:55:40.456Z,8.13
2018-02-06T18:58:08.779Z,8.60
2018-02-06T19:00:37.118Z,8.50
2018-02-06T19:03:05.869Z,8.77
2018-02-06T19:05:34.991Z,10.18
2018-02-06T19:08:03.337Z,9.93
2018-02-06T19:10:31.681Z,9.45
2018-02-06T19:13:00.015Z,8.80
2018-02-06T19:15:28.329Z,12.65
2018-02-06T19:17:56.675Z,11.95
2018-02-06T19:20:25.917Z,12.75
2018-02-06T19:22:54.945Z,13.35
2018-02-06T19:25:24.263Z,13.73
2018-02-06T19:27:52.607Z,13.52
2018-02-06T19:33:37.301Z,12.13
2018-02-06T19:36:05.621Z,12.77
2018-02-06T19:38:33.961Z,12.88
2018-02-06T19:41:02.654Z,12.25
2018-02-06T19:43:30.957Z,12.15
2018-02-06T19:46:00.285Z,13.15
2018-02-06T19:48:28.620Z,12.52
2018-02-06T19:50:59.253Z,13.52
2018-02-06T19:53:27.629Z,12.13
2018-02-06T19:55:55.968Z,12.43
2018-02-06T19:58:24.321Z,11.50
2018-02-06T20:00:52.651Z,11.35
2018-02-06T20:03:21.457Z,10.50
2018-02-06T20:05:49.797Z,10.52
2018-02-06T20:08:18.910Z,11.23
2018-02-06T20:10:47.259Z,11.12
2018-02-06T20:13:15.616Z,10.50
2018-02-06T20:15:43.930Z,9.63
2018-02-06T20:18:12.292Z,10.60
2018-02-06T20:20:40.608Z,10.70
2018-02-06T20:23:08.923Z,10.35
2018-02-06T20:25:38.165Z,10.45
2018-02-06T20:28:07.390Z,11.35
2018-02-06T20:30:36.632Z,11.30
2018-02-06T20:33:05.961Z,11.12
2018-02-06T20:35:34.281Z,11.75
2018-02-06T20:38:03.383Z,11.75
2018-02-06T20:40:33.017Z,9.20
2018-02-06T20:43:02.140Z,10.55
2018-02-06T20:45:30.516Z,9.70
2018-02-06T20:47:59.227Z,10.30
2018-02-06T20:50:27.576Z,9.90
2018-02-06T20:52:55.913Z,9.25
2018-02-06T20:55:25.039Z,10.68
2018-02-06T20:57:53.359Z,10.68
2018-02-06T21:00:21.914Z,10.57
2018-02-06T21:02:50.299Z,10.35
2018-02-06T21:05:18.613Z,10.57
2018-02-06T21:07:46.998Z,11.40
2018-02-06T21:10:16.184Z,11.20
2018-02-06T21:12:44.545Z,11.45
2018-02-06T21:15:13.637Z,9.93
2018-02-06T21:17:41.988Z,10.15
2018-02-06T21:20:10.386Z,10.10
2018-02-06T21:22:38.740Z,9.15
2018-02-06T21:25:07.079Z,9.77
2018-02-06T21:27:35.399Z,9.73
2018-02-06T21:30:03.711Z,10.25
2018-02-06T21:32:32.216Z,9.75
2018-02-06T21:35:00.536Z,9.57
2018-02-06T21:37:28.876Z,9.10
2018-02-06T21:39:57.294Z,9.57
2018-02-06T21:42:25.695Z,10.55
2018-02-06T21:44:54.033Z,9.60
2018-02-06T21:47:22.397Z,9.77
2018-02-06T21:49:50.841Z,10.10
2018-02-06T21:52:19.187Z,10.38
2018-02-06T21:54:47.927Z,10.32
2018-02-06T21:57:16.268Z,10.00
2018-02-06T21:59:44.604Z,9.65
2018-02-06T22:02:13.015Z,11.32
2018-02-06T22:04:41.364Z,10.45
2018-02-06T22:07:09.722Z,9.68
2018-02-06T22:09:38.866Z,10.02
2018-02-06T22:12:07.220Z,9.10
2018-02-06T22:14:35.623Z,9.38
2018-02-06T22:17:05.268Z,10.38
2018-02-06T22:19:34.362Z,10.35
2018-02-06T22:22:02.750Z,10.07
2018-02-06T22:24:31.137Z,10.15
2018-02-06T22:26:59.463Z,9.20
2018-02-06T22:29:27.802Z,9.45
2018-02-06T22:31:56.177Z,9.95
2018-02-06T22:34:24.504Z,9.18
2018-02-06T22:36:52.861Z,11.38
2018-02-06T22:39:22.056Z,10.07
2018-02-06T22:41:51.172Z,9.90
2018-02-06T22:44:19.516Z,11.10
2018-02-06T22:46:47.875Z,11.35
2018-02-06T22:49:16.308Z,10.82
2018-02-06T22:51:44.653Z,9.13
2018-02-06T22:54:13.061Z,11.63
2018-02-06T22:56:41.444Z,9.07
2018-02-06T22:59:09.804Z,9.80
2018-02-06T23:01:38.673Z,10.88
2018-02-06T23:04:07.049Z,9.95
2018-02-06T23:06:35.368Z,9.45
2018-02-06T23:09:03.764Z,9.98
2018-02-06T23:11:32.084Z,9.98
2018-02-06T23:14:00.451Z,9.65
2018-02-06T23:16:28.949Z,10.30
2018-02-06T23:18:57.353Z,9.85
2018-02-06T23:21:25.732Z,10.45
2018-02-06T23:23:54.373Z,10.13
2018-02-06T23:26:22.759Z,10.10
2018-02-06T23:28:51.166Z,9.93
2018-02-06T23:31:19.565Z,10.45
2018-02-06T23:33:48.726Z,9.77
2018-02-06T23:36:17.131Z,11.07
2018-02-06T23:38:45.475Z,10.07
2018-02-06T23:41:13.939Z,9.88
2018-02-06T23:43:42.380Z,10.65
2018-02-06T23:46:11.943Z,11.12
2018-02-06T23:48:40.426Z,10.35
2018-02-06T23:51:08.723Z,11.23
2018-02-06T23:53:37.308Z,9.90
2018-02-06T23:56:06.486Z,9.35
2018-02-06T23:58:34.877Z,9.18
